| time (UTC) | temp F | wind direction | speed MPH | gust MPH | rain 1hr in | rain 24hr in | rain mn in | humidity % | barometer mb |
| 20260510091149 | 46 | 90 | 2.0 | 5.0 | 0.06 | 0.18 | 0.17 | 89 | 1024.8 |
| 20260510090647 | 46 | 90 | 1.0 | 3.0 | 0.07 | 0.17 | 0.15 | 89 | 1024.7 |
| 20260510090147 | 46 | 89 | 0.0 | 2.0 | 0.06 | 0.16 | 0.14 | 89 | 1024.7 |
| 20260510085648 | 46 | 90 | 0.0 | 2.0 | 0.06 | 0.14 | 0.12 | 89 | 1024.6 |
| 20260510085148 | 46 | 90 | 1.0 | 3.0 | 0.05 | 0.13 | 0.11 | 89 | 1024.6 |
| 20260510084922 | 47 | 90 | 2.0 | 3.0 | 0.06 | 0.13 | 0.11 | 88 | 1024.4 |
| 20260510084149 | 47 | 90 | 2.0 | 5.0 | 0.06 | 0.13 | 0.11 | 88 | 1024.2 |
| 20260510083645 | 47 | 90 | 1.0 | 5.0 | 0.06 | 0.13 | 0.11 | 89 | 1024.3 |
| 20260510083147 | 47 | 90 | 2.0 | 5.0 | 0.06 | 0.13 | 0.11 | 89 | 1024.2 |
| 20260510082648 | 47 | 91 | 3.0 | 5.0 | 0.06 | 0.13 | 0.11 | 89 | 1024.1 |
| 20260510082146 | 47 | 0 | 2.0 | 4.0 | 0.05 | 0.12 | 0.10 | 89 | 1023.8 |
| 20260510081645 | 47 | 0 | 0.0 | 4.0 | 0.06 | 0.12 | 0.10 | 89 | 1023.6 |
| 20260510081145 | 47 | 0 | 0.0 | 2.0 | 0.07 | 0.12 | 0.10 | 89 | 1023.8 |
| 20260510080648 | 48 | 0 | 1.0 | 5.0 | 0.06 | 0.10 | 0.09 | 90 | 1024.0 |
| 20260510080146 | 48 | 0 | 0.0 | 5.0 | 0.06 | 0.10 | 0.08 | 90 | 1024.0 |
| 20260510075647 | 48 | 0 | 0.0 | 1.0 | 0.05 | 0.08 | 0.07 | 90 | 1023.9 |
| 20260510075417 | 48 | 0 | 0.0 | 0.0 | 0.06 | 0.08 | 0.06 | 90 | 1023.9 |
| 20260510074646 | 48 | 0 | 0.0 | 0.0 | 0.05 | 0.07 | 0.05 | 90 | 1023.9 |
| 20260510074145 | 48 | 0 | 0.0 | 0.0 | 0.05 | 0.07 | 0.05 | 89 | 1023.8 |
| 20260510073647 | 48 | 0 | 0.0 | 0.0 | 0.05 | 0.07 | 0.05 | 89 | 1023.9 |
| 20260510073419 | 48 | 0 | 0.0 | 0.0 | 0.05 | 0.07 | 0.05 | 89 | 1023.9 |
| 20260510072645 | 48 | 0 | 0.0 | 0.0 | 0.05 | 0.07 | 0.05 | 88 | 1023.9 |
| 20260510072147 | 48 | 0 | 2.0 | 6.0 | 0.05 | 0.07 | 0.05 | 88 | 1023.8 |
| 20260510071646 | 48 | 0 | 3.0 | 6.0 | 0.04 | 0.06 | 0.04 | 88 | 1023.6 |
| 20260510071145 | 48 | 0 | 3.0 | 6.0 | 0.03 | 0.05 | 0.04 | 88 | 1023.6 |
| 20260510070646 | 48 | 0 | 3.0 | 7.0 | 0.02 | 0.04 | 0.02 | 87 | 1023.8 |
| 20260510070147 | 48 | 0 | 3.0 | 7.0 | 0.02 | 0.04 | 0.02 | 87 | 1023.9 |
| 20260510065645 | 48 | 0 | 4.0 | 7.0 | 0.01 | 0.03 | 0.01 | 86 | 1024.0 |
| 20260510065147 | 48 | 0 | 3.0 | 7.0 | 0.00 | 0.02 | 0.00 | 86 | 1024.2 |
| 20260510064915 | 48 | 0 | 3.0 | 7.0 | 0.00 | 0.02 | 0.00 | 86 | 1024.2 |
| 20260510064144 | 48 | 0 | 3.0 | 6.0 | 0.00 | 0.02 | 0.00 | 86 | 1024.1 |
| 20260510063643 | 48 | 0 | 2.0 | 5.0 | 0.00 | 0.02 | 0.00 | 86 | 1024.0 |
| 20260510063141 | 48 | 0 | 1.0 | 5.0 | 0.00 | 0.02 | 0.00 | 85 | 1023.8 |
| 20260510062642 | 48 | 0 | 1.0 | 5.0 | 0.00 | 0.02 | 0.00 | 85 | 1023.6 |
| 20260510062138 | 48 | 0 | 2.0 | 5.0 | 0.00 | 0.02 | 0.00 | 85 | 1023.4 |
| 20260510061639 | 48 | 0 | 2.0 | 5.0 | 0.00 | 0.02 | 0.00 | 84 | 1023.4 |
| 20260510061137 | 48 | 0 | 2.0 | 5.0 | 0.00 | 0.02 | 0.00 | 84 | 1023.4 |
| 20260510060635 | 48 | 0 | 1.0 | 5.0 | 0.01 | 0.02 | 0.00 | 84 | 1023.3 |
| 20260510060134 | 48 | 0 | 2.0 | 7.0 | 0.01 | 0.02 | 0.00 | 83 | 1023.2 |
| 20260510055904 | 49 | 0 | 5.0 | 9.0 | 0.01 | 0.02 | 0.02 | 82 | 1023.1 |
| 20260510055130 | 49 | 0 | 5.0 | 10.0 | 0.02 | 0.02 | 0.02 | 81 | 1023.2 |
| 20260510054628 | 49 | 0 | 4.0 | 10.0 | 0.02 | 0.02 | 0.02 | 81 | 1023.3 |
| 20260510054127 | 49 | 0 | 3.0 | 8.0 | 0.02 | 0.02 | 0.02 | 81 | 1023.4 |
| 20260510053626 | 49 | 0 | 3.0 | 6.0 | 0.02 | 0.02 | 0.02 | 80 | 1023.3 |
| 20260510053127 | 49 | 160 | 2.0 | 5.0 | 0.02 | 0.02 | 0.02 | 80 | 1023.3 |
| 20260510052626 | 49 | 0 | 3.0 | 4.0 | 0.02 | 0.02 | 0.02 | 81 | 1023.3 |
| 20260510052355 | 49 | 160 | 3.0 | 5.0 | 0.02 | 0.02 | 0.02 | 80 | 1023.2 |
| 20260510051855 | 49 | 160 | 4.0 | 6.0 | 0.02 | 0.02 | 0.02 | 79 | 1023.2 |
| 20260510051122 | 50 | 0 | 4.0 | 6.0 | 0.02 | 0.02 | 0.02 | 78 | 1023.2 |
| 20260510050853 | 50 | 0 | 3.0 | 6.0 | 0.01 | 0.01 | 0.01 | 77 | 1023.2 |
| 20260510050120 | 50 | 0 | 1.0 | 4.0 | 0.01 | 0.01 | 0.01 | 76 | 1023.2 |
| 20260510045851 | 50 | 333 | 1.0 | 3.0 | 0.01 | 0.01 | 0.01 | 75 | 1023.2 |
| 20260510045118 | 51 | 0 | 2.0 | 3.0 | 0.00 | 0.00 | 0.00 | 73 | 1023.2 |
| 20260510044617 | 51 | 0 | 2.0 | 4.0 | 0.00 | 0.00 | 0.00 | 72 | 1023.2 |
| 20260510044113 | 51 | 331 | 1.0 | 4.0 | 0.00 | 0.00 | 0.00 | 72 | 1023.2 |
| 20260510043615 | 51 | 333 | 0.0 | 3.0 | 0.00 | 0.00 | 0.00 | 69 | 1023.2 |
| 20260510043113 | 51 | 332 | 1.0 | 3.0 | 0.00 | 0.00 | 0.00 | 68 | 1023.1 |
| 20260510042613 | 51 | 333 | 2.0 | 5.0 | 0.00 | 0.00 | 0.00 | 70 | 1023.1 |
| 20260510042111 | 51 | 0 | 3.0 | 5.0 | 0.00 | 0.00 | 0.00 | 69 | 1023.1 |
| 20260510041608 | 50 | 0 | 3.0 | 5.0 | 0.00 | 0.00 | 0.00 | 70 | 1022.9 |
| 20260510041106 | 50 | 0 | 4.0 | 7.0 | 0.00 | 0.00 | 0.00 | 69 | 1022.8 |
| 20260510040607 | 50 | 0 | 5.0 | 9.0 | 0.00 | 0.00 | 0.00 | 68 | 1022.5 |
| 20260510040107 | 50 | 0 | 5.0 | 11.0 | 0.00 | 0.00 | 0.00 | 69 | 1022.4 |
| 20260510035604 | 50 | 0 | 6.0 | 13.0 | 0.00 | 0.00 | 0.00 | 68 | 1022.5 |
| 20260510035105 | 50 | 0 | 6.0 | 13.0 | 0.00 | 0.00 | 0.00 | 68 | 1022.6 |
| 20260510034603 | 51 | 310 | 5.0 | 11.0 | 0.00 | 0.00 | 0.00 | 67 | 1022.6 |
| 20260510034101 | 51 | 0 | 7.0 | 13.0 | 0.00 | 0.00 | 0.00 | 68 | 1022.5 |
| 20260510033601 | 51 | 0 | 8.0 | 18.0 | 0.00 | 0.00 | 0.00 | 68 | 1022.3 |
| 20260510033057 | 51 | 0 | 8.0 | 18.0 | 0.00 | 0.00 | 0.00 | 68 | 1022.1 |
| 20260510032828 | 51 | 334 | 8.0 | 15.0 | 0.00 | 0.00 | 0.00 | 69 | 1022.3 |
| 20260510032056 | 51 | 0 | 8.0 | 12.0 | 0.00 | 0.00 | 0.00 | 69 | 1022.4 |
| 20260510031555 | 51 | 0 | 9.0 | 14.0 | 0.00 | 0.00 | 0.00 | 70 | 1022.3 |
| 20260510031056 | 51 | 0 | 9.0 | 14.0 | 0.00 | 0.00 | 0.00 | 70 | 1022.1 |
| 20260510030556 | 51 | 0 | 9.0 | 14.0 | 0.00 | 0.00 | 0.00 | 70 | 1022.0 |
| 20260510030055 | 51 | 0 | 9.0 | 16.0 | 0.00 | 0.00 | 0.00 | 70 | 1021.8 |
| 20260510025555 | 51 | 0 | 9.0 | 18.0 | 0.00 | 0.00 | 0.00 | 70 | 1021.6 |
| 20260510025053 | 51 | 328 | 9.0 | 18.0 | 0.00 | 0.00 | 0.00 | 69 | 1021.3 |
| 20260510024555 | 51 | 0 | 9.0 | 17.0 | 0.00 | 0.00 | 0.00 | 70 | 1021.0 |
| 20260510024054 | 51 | 0 | 10.0 | 23.0 | 0.00 | 0.00 | 0.00 | 69 | 1020.9 |
| 20260510023555 | 51 | 0 | 10.0 | 23.0 | 0.00 | 0.00 | 0.00 | 69 | 1020.9 |
| 20260510023054 | 51 | 0 | 9.0 | 18.0 | 0.00 | 0.00 | 0.00 | 68 | 1020.9 |
| 20260510022604 | 52 | 0 | 8.0 | 16.0 | 0.00 | 0.00 | 0.00 | 67 | 1020.6 |
| 20260510022553 | 51 | 0 | 8.0 | 14.0 | 0.00 | 0.00 | 0.00 | 68 | 1020.8 |
| 20260510022053 | 52 | 0 | 8.0 | 14.0 | 0.00 | 0.00 | 0.00 | 68 | 1020.6 |
| 20260510021553 | 52 | 0 | 9.0 | 16.0 | 0.00 | 0.00 | 0.00 | 68 | 1020.5 |
| 20260510020551 | 52 | 0 | 8.0 | 13.0 | 0.00 | 0.00 | 0.00 | 67 | 1020.8 |
| 20260510020054 | 52 | 344 | 10.0 | 20.0 | 0.00 | 0.00 | 0.00 | 67 | 1020.4 |
| 20260510015822 | 53 | 0 | 11.0 | 20.0 | 0.00 | 0.00 | 0.00 | 66 | 1019.8 |
| 20260510015051 | 53 | 0 | 10.0 | 19.0 | 0.00 | 0.00 | 0.00 | 66 | 1019.9 |
| 20260510014552 | 53 | 0 | 10.0 | 19.0 | 0.00 | 0.00 | 0.00 | 65 | 1020.1 |
| 20260510014052 | 53 | 0 | 10.0 | 19.0 | 0.00 | 0.00 | 0.00 | 64 | 1019.8 |
| 20260510013553 | 53 | 0 | 10.0 | 19.0 | 0.00 | 0.00 | 0.00 | 63 | 1019.8 |
| 20260510013051 | 54 | 0 | 11.0 | 20.0 | 0.00 | 0.00 | 0.00 | 62 | 1019.6 |
| 20260510012552 | 55 | 0 | 11.0 | 21.0 | 0.00 | 0.00 | 0.00 | 61 | 1019.3 |
| 20260510012052 | 56 | 0 | 10.0 | 21.0 | 0.00 | 0.00 | 0.00 | 63 | 1019.3 |
| 20260510011550 | 56 | 0 | 10.0 | 20.0 | 0.00 | 0.00 | 0.00 | 63 | 1018.7 |
| 20260510011049 | 56 | 0 | 11.0 | 22.0 | 0.00 | 0.00 | 0.00 | 64 | 1019.0 |
| 20260510010549 | 55 | 0 | 12.0 | 22.0 | 0.00 | 0.00 | 0.00 | 66 | 1019.3 |
| 20260510010320 | 55 | 0 | 12.0 | 22.0 | 0.00 | 0.00 | 0.00 | 64 | 1018.9 |
| 20260510005824 | 55 | 0 | 12.0 | 25.0 | 0.00 | 0.00 | 0.00 | 66 | 1018.7 |
| 20260510005711 | 55 | 0 | 12.0 | 25.0 | 0.00 | 0.00 | 0.00 | 66 | 1018.3 |
| 20260510004549 | 55 | 0 | 12.0 | 23.0 | 0.00 | 0.00 | 0.00 | 66 | 1018.1 |
| 20260510004050 | 56 | 0 | 11.0 | 21.0 | 0.00 | 0.00 | 0.00 | 64 | 1017.5 |
| 20260510003550 | 57 | 0 | 12.0 | 26.0 | 0.00 | 0.00 | 0.00 | 63 | 1017.3 |
| 20260510003050 | 56 | 0 | 14.0 | 29.0 | 0.00 | 0.00 | 0.00 | 64 | 1016.7 |
| 20260510002551 | 56 | 0 | 16.0 | 34.0 | 0.00 | 0.00 | 0.00 | 65 | 1016.5 |
| 20260510002050 | 56 | 0 | 16.0 | 34.0 | 0.00 | 0.00 | 0.00 | 63 | 1016.6 |
| 20260510001549 | 56 | 0 | 14.0 | 26.0 | 0.00 | 0.00 | 0.00 | 63 | 1016.7 |
| 20260510001049 | 57 | 0 | 14.0 | 26.0 | 0.00 | 0.00 | 0.00 | 62 | 1016.4 |
| 20260510000821 | 57 | 0 | 14.0 | 24.0 | 0.00 | 0.00 | 0.00 | 61 | 1016.1 |
| 20260510000049 | 58 | 0 | 13.0 | 23.0 | 0.00 | 0.00 | 0.00 | 60 | 1015.9 |
| 20260509235549 | 59 | 0 | 14.0 | 28.0 | 0.00 | 0.00 | 0.00 | 58 | 1015.7 |
| 20260509235054 | 59 | 0 | 15.0 | 28.0 | 0.00 | 0.00 | 0.00 | 56 | 1015.1 |
| 20260509234549 | 60 | 0 | 15.0 | 27.0 | 0.00 | 0.00 | 0.00 | 55 | 1014.9 |
| 20260509234049 | 61 | 0 | 15.0 | 27.0 | 0.00 | 0.00 | 0.00 | 52 | 1014.6 |
| 20260509233551 | 63 | 0 | 16.0 | 30.0 | 0.00 | 0.00 | 0.00 | 50 | 1014.4 |
| 20260509233050 | 65 | 0 | 15.0 | 30.0 | 0.00 | 0.00 | 0.00 | 46 | 1014.2 |
| 20260509232550 | 69 | 0 | 10.0 | 25.0 | 0.00 | 0.00 | 0.00 | 40 | 1014.2 |
| 20260509232048 | 72 | 0 | 7.0 | 12.0 | 0.00 | 0.00 | 0.00 | 32 | 1013.8 |
| 20260509231548 | 72 | 0 | 6.0 | 12.0 | 0.00 | 0.00 | 0.00 | 30 | 1013.4 |
| 20260509231048 | 72 | 0 | 5.0 | 10.0 | 0.00 | 0.00 | 0.00 | 29 | 1013.1 |
| 20260509230545 | 72 | 0 | 5.0 | 9.0 | 0.00 | 0.00 | 0.00 | 30 | 1012.9 |
| 20260509230317 | 71 | 0 | 5.0 | 10.0 | 0.00 | 0.00 | 0.00 | 29 | 1012.9 |
| 20260509225546 | 72 | 0 | 5.0 | 10.0 | 0.00 | 0.00 | 0.00 | 30 | 1012.8 |
| 20260509225045 | 72 | 0 | 6.0 | 11.0 | 0.00 | 0.00 | 0.00 | 29 | 1012.8 |
| 20260509224818 | 72 | 0 | 5.0 | 11.0 | 0.00 | 0.00 | 0.00 | 29 | 1012.7 |
| 20260509224047 | 72 | 0 | 5.0 | 10.0 | 0.00 | 0.00 | 0.00 | 30 | 1012.7 |
| 20260509223546 | 72 | 0 | 7.0 | 12.0 | 0.00 | 0.00 | 0.00 | 31 | 1012.6 |
| 20260509223047 | 72 | 0 | 7.0 | 12.0 | 0.00 | 0.00 | 0.00 | 29 | 1012.6 |
| 20260509222545 | 73 | 0 | 6.0 | 12.0 | 0.00 | 0.00 | 0.00 | 30 | 1012.6 |
| 20260509222044 | 73 | 0 | 6.0 | 12.0 | 0.00 | 0.00 | 0.00 | 30 | 1012.6 |
| 20260509221544 | 72 | 0 | 7.0 | 13.0 | 0.00 | 0.00 | 0.00 | 31 | 1012.6 |
| 20260509221042 | 72 | 0 | 7.0 | 13.0 | 0.00 | 0.00 | 0.00 | 30 | 1012.7 |
| 20260509220543 | 73 | 0 | 6.0 | 13.0 | 0.00 | 0.00 | 0.00 | 31 | 1012.7 |
| 20260509220313 | 73 | 0 | 7.0 | 13.0 | 0.00 | 0.00 | 0.00 | 31 | 1012.7 |
| 20260509215543 | 73 | 0 | 7.0 | 12.0 | 0.00 | 0.00 | 0.00 | 32 | 1012.7 |
| 20260509215043 | 72 | 0 | 7.0 | 12.0 | 0.00 | 0.00 | 0.00 | 33 | 1012.7 |
| 20260509214545 | 72 | 0 | 7.0 | 12.0 | 0.00 | 0.00 | 0.00 | 32 | 1012.7 |
| 20260509214043 | 72 | 0 | 8.0 | 17.0 | 0.00 | 0.00 | 0.00 | 31 | 1012.8 |
| 20260509213544 | 72 | 0 | 8.0 | 17.0 | 0.00 | 0.00 | 0.00 | 31 | 1012.9 |
| 20260509213044 | 73 | 0 | 8.0 | 16.0 | 0.00 | 0.00 | 0.00 | 30 | 1012.9 |
| 20260509212543 | 73 | 0 | 8.0 | 14.0 | 0.00 | 0.00 | 0.00 | 31 | 1012.9 |
| 20260509212042 | 73 | 0 | 7.0 | 14.0 | 0.00 | 0.00 | 0.00 | 31 | 1013.0 |
| 20260509211541 | 73 | 0 | 6.0 | 14.0 | 0.00 | 0.00 | 0.00 | 34 | 1013.1 |
| 20260509211314 | 72 | 0 | 7.0 | 15.0 | 0.00 | 0.00 | 0.00 | 31 | 1013.1 |
| 20260509210541 | 72 | 0 | 8.0 | 17.0 | 0.00 | 0.00 | 0.00 | 32 | 1013.2 |
| 20260509210041 | 73 | 0 | 8.0 | 17.0 | 0.00 | 0.00 | 0.00 | 31 | 1013.2 |
| 20260509205541 | 73 | 0 | 7.0 | 14.0 | 0.00 | 0.00 | 0.00 | 31 | 1013.1 |
| 20260509205041 | 73 | 0 | 8.0 | 14.0 | 0.00 | 0.00 | 0.00 | 31 | 1013.1 |
| 20260509204812 | 74 | 0 | 7.0 | 14.0 | 0.00 | 0.00 | 0.00 | 31 | 1012.9 |
| 20260509204311 | 73 | 0 | 8.0 | 19.0 | 0.00 | 0.00 | 0.00 | 30 | 1012.9 |
| 20260509203541 | 73 | 0 | 10.0 | 19.0 | 0.00 | 0.00 | 0.00 | 29 | 1012.9 |
| 20260509203040 | 74 | 0 | 10.0 | 19.0 | 0.00 | 0.00 | 0.00 | 28 | 1012.9 |
| 20260509202540 | 75 | 0 | 9.0 | 19.0 | 0.00 | 0.00 | 0.00 | 29 | 1013.0 |
| 20260509202040 | 75 | 0 | 8.0 | 17.0 | 0.00 | 0.00 | 0.00 | 28 | 1013.0 |
| 20260509201539 | 76 | 0 | 5.0 | 17.0 | 0.00 | 0.00 | 0.00 | 27 | 1013.0 |
| 20260509201041 | 77 | 0 | 4.0 | 10.0 | 0.00 | 0.00 | 0.00 | 24 | 1013.1 |
| 20260509200540 | 77 | 0 | 6.0 | 11.0 | 0.00 | 0.00 | 0.00 | 21 | 1013.0 |
| 20260509200039 | 76 | 0 | 7.0 | 14.0 | 0.00 | 0.00 | 0.00 | 27 | 1013.1 |
| 20260509195540 | 76 | 0 | 8.0 | 14.0 | 0.00 | 0.00 | 0.00 | 22 | 1013.1 |
| 20260509195039 | 77 | 0 | 7.0 | 14.0 | 0.00 | 0.00 | 0.00 | 21 | 1013.0 |
| 20260509194538 | 78 | 0 | 6.0 | 13.0 | 0.00 | 0.00 | 0.00 | 23 | 1013.0 |
| 20260509194037 | 78 | 0 | 7.0 | 16.0 | 0.00 | 0.00 | 0.00 | 22 | 1013.0 |
| 20260509193537 | 78 | 0 | 7.0 | 16.0 | 0.00 | 0.00 | 0.00 | 22 | 1013.0 |
| 20260509193038 | 78 | 0 | 8.0 | 16.0 | 0.00 | 0.00 | 0.00 | 23 | 1013.0 |
| 20260509192809 | 78 | 0 | 9.0 | 18.0 | 0.00 | 0.00 | 0.00 | 24 | 1013.0 |
| 20260509192035 | 77 | 0 | 11.0 | 20.0 | 0.00 | 0.00 | 0.00 | 21 | 1013.0 |
| 20260509191536 | 77 | 0 | 9.0 | 20.0 | 0.00 | 0.00 | 0.00 | 21 | 1013.0 |
| 20260509191036 | 77 | 0 | 7.0 | 19.0 | 0.00 | 0.00 | 0.00 | 27 | 1012.9 |
| 20260509190534 | 77 | 0 | 10.0 | 20.0 | 0.00 | 0.00 | 0.00 | 22 | 1013.1 |
| 20260509190036 | 77 | 0 | 10.0 | 20.0 | 0.00 | 0.00 | 0.00 | 20 | 1013.0 |
| 20260509185533 | 77 | 0 | 8.0 | 17.0 | 0.00 | 0.00 | 0.00 | 21 | 1013.1 |
| 20260509185306 | 76 | 0 | 8.0 | 17.0 | 0.00 | 0.00 | 0.00 | 26 | 1013.1 |
| 20260509184532 | 76 | 0 | 8.0 | 18.0 | 0.00 | 0.00 | 0.00 | 23 | 1013.1 |
| 20260509184032 | 76 | 0 | 8.0 | 18.0 | 0.00 | 0.00 | 0.00 | 23 | 1013.1 |
| 20260509183533 | 76 | 0 | 8.0 | 14.0 | 0.00 | 0.00 | 0.00 | 23 | 1013.1 |
| 20260509183032 | 76 | 0 | 9.0 | 15.0 | 0.00 | 0.00 | 0.00 | 24 | 1013.2 |
| 20260509182530 | 76 | 0 | 9.0 | 17.0 | 0.00 | 0.00 | 0.00 | 22 | 1013.2 |
| 20260509182031 | 76 | 0 | 9.0 | 17.0 | 0.00 | 0.00 | 0.00 | 22 | 1013.4 |
| 20260509181532 | 76 | 0 | 9.0 | 17.0 | 0.00 | 0.00 | 0.00 | 25 | 1013.4 |
| 20260509181032 | 76 | 0 | 9.0 | 17.0 | 0.00 | 0.00 | 0.00 | 23 | 1013.4 |
| 20260509180531 | 76 | 0 | 8.0 | 14.0 | 0.00 | 0.00 | 0.00 | 23 | 1013.4 |
| 20260509180032 | 76 | 0 | 8.0 | 13.0 | 0.00 | 0.00 | 0.00 | 22 | 1013.4 |
| 20260509175531 | 76 | 0 | 8.0 | 13.0 | 0.00 | 0.00 | 0.00 | 26 | 1013.4 |
| 20260509175030 | 76 | 0 | 9.0 | 19.0 | 0.00 | 0.00 | 0.00 | 23 | 1013.4 |
| 20260509174528 | 76 | 0 | 9.0 | 19.0 | 0.00 | 0.00 | 0.00 | 22 | 1013.6 |
| 20260509174030 | 75 | 0 | 8.0 | 17.0 | 0.00 | 0.00 | 0.00 | 23 | 1013.5 |
| 20260509173529 | 75 | 0 | 8.0 | 17.0 | 0.00 | 0.00 | 0.00 | 22 | 1013.6 |
| 20260509173029 | 74 | 0 | 8.0 | 15.0 | 0.00 | 0.00 | 0.00 | 25 | 1013.4 |
| 20260509172529 | 74 | 0 | 9.0 | 25.0 | 0.00 | 0.00 | 0.00 | 22 | 1013.5 |
| 20260509172029 | 74 | 0 | 11.0 | 25.0 | 0.00 | 0.00 | 0.00 | 26 | 1013.6 |
| 20260509171802 | 74 | 0 | 10.0 | 21.0 | 0.00 | 0.00 | 0.00 | 26 | 1013.6 |
| 20260509171029 | 74 | 0 | 11.0 | 21.0 | 0.00 | 0.00 | 0.00 | 27 | 1013.5 |
| 20260509170528 | 73 | 0 | 10.0 | 21.0 | 0.00 | 0.00 | 0.00 | 25 | 1013.6 |
| 20260509170031 | 74 | 0 | 10.0 | 22.0 | 0.00 | 0.00 | 0.00 | 27 | 1013.6 |
| 20260509165526 | 73 | 0 | 11.0 | 22.0 | 0.00 | 0.00 | 0.00 | 26 | 1013.6 |
| 20260509165029 | 73 | 0 | 11.0 | 21.0 | 0.00 | 0.00 | 0.00 | 25 | 1013.7 |
| 20260509164525 | 73 | 0 | 11.0 | 17.0 | 0.00 | 0.00 | 0.00 | 27 | 1013.6 |
| 20260509164256 | 73 | 0 | 10.0 | 18.0 | 0.00 | 0.00 | 0.00 | 26 | 1013.7 |
| 20260509163756 | 73 | 0 | 7.0 | 18.0 | 0.00 | 0.00 | 0.00 | 26 | 1013.7 |
| 20260509163255 | 73 | 0 | 4.0 | 15.0 | 0.00 | 0.00 | 0.00 | 30 | 1013.7 |
| 20260509162525 | 73 | 0 | 6.0 | 15.0 | 0.00 | 0.00 | 0.00 | 31 | 1013.7 |
| 20260509162255 | 72 | 0 | 7.0 | 17.0 | 0.00 | 0.00 | 0.00 | 29 | 1013.8 |
| 20260509161525 | 72 | 0 | 5.0 | 17.0 | 0.00 | 0.00 | 0.00 | 29 | 1013.8 |
| 20260509161025 | 72 | 0 | 4.0 | 9.0 | 0.00 | 0.00 | 0.00 | 33 | 1013.7 |
| 20260509160523 | 71 | 0 | 6.0 | 10.0 | 0.00 | 0.00 | 0.00 | 33 | 1013.7 |
| 20260509160022 | 71 | 0 | 6.0 | 12.0 | 0.00 | 0.00 | 0.00 | 34 | 1013.7 |
| 20260509155523 | 70 | 0 | 5.0 | 12.0 | 0.00 | 0.00 | 0.00 | 34 | 1013.7 |
| 20260509155023 | 70 | 0 | 7.0 | 13.0 | 0.00 | 0.00 | 0.00 | 34 | 1013.7 |
| 20260509154521 | 69 | 0 | 7.0 | 13.0 | 0.00 | 0.00 | 0.00 | 34 | 1013.7 |
| 20260509154019 | 69 | 0 | 7.0 | 12.0 | 0.00 | 0.00 | 0.00 | 36 | 1013.7 |
| 20260509153518 | 68 | 0 | 7.0 | 12.0 | 0.00 | 0.00 | 0.00 | 36 | 1013.6 |
| 20260509153018 | 67 | 0 | 7.0 | 13.0 | 0.00 | 0.00 | 0.00 | 38 | 1013.6 |
| 20260509152519 | 67 | 0 | 5.0 | 13.0 | 0.00 | 0.00 | 0.00 | 38 | 1013.6 |
| 20260509152018 | 66 | 0 | 2.0 | 12.0 | 0.00 | 0.00 | 0.00 | 40 | 1013.5 |
| 20260509151516 | 65 | 0 | 1.0 | 3.0 | 0.00 | 0.00 | 0.00 | 48 | 1013.6 |
| 20260509151013 | 64 | 0 | 2.0 | 5.0 | 0.00 | 0.00 | 0.00 | 50 | 1013.5 |
| 20260509150512 | 63 | 0 | 2.0 | 5.0 | 0.00 | 0.00 | 0.00 | 53 | 1013.5 |
| 20260509150013 | 62 | 0 | 1.0 | 4.0 | 0.00 | 0.00 | 0.00 | 53 | 1013.5 |
| 20260509145512 | 60 | 0 | 1.0 | 3.0 | 0.00 | 0.00 | 0.00 | 50 | 1013.5 |
| 20260509145012 | 59 | 0 | 2.0 | 4.0 | 0.00 | 0.00 | 0.00 | 56 | 1013.5 |
| 20260509144513 | 58 | 0 | 2.0 | 4.0 | 0.00 | 0.00 | 0.00 | 57 | 1013.6 |
| 20260509144011 | 57 | 0 | 1.0 | 4.0 | 0.00 | 0.00 | 0.00 | 56 | 1013.7 |
| 20260509143510 | 57 | 0 | 1.0 | 3.0 | 0.00 | 0.00 | 0.00 | 59 | 1013.7 |
| 20260509143011 | 56 | 0 | 1.0 | 3.0 | 0.00 | 0.00 | 0.00 | 59 | 1013.6 |
| 20260509142509 | 55 | 0 | 0.0 | 2.0 | 0.00 | 0.00 | 0.00 | 60 | 1013.5 |
| 20260509142007 | 55 | 0 | 0.0 | 3.0 | 0.00 | 0.00 | 0.00 | 65 | 1013.4 |
| 20260509141506 | 54 | 0 | 0.0 | 3.0 | 0.00 | 0.00 | 0.00 | 65 | 1013.4 |
| 20260509141236 | 53 | 0 | 0.0 | 0.0 | 0.00 | 0.00 | 0.00 | 68 | 1013.4 |
| 20260509140506 | 53 | 0 | 0.0 | 0.0 | 0.00 | 0.00 | 0.00 | 70 | 1013.4 |
| 20260509140237 | 52 | 0 | 0.0 | 3.0 | 0.00 | 0.00 | 0.00 | 69 | 1013.2 |
| 20260509135504 | 51 | 0 | 1.0 | 5.0 | 0.00 | 0.00 | 0.00 | 75 | 1013.4 |
| 20260509135002 | 51 | 0 | 2.0 | 5.0 | 0.00 | 0.00 | 0.00 | 77 | 1013.4 |
| 20260509134501 | 50 | 0 | 2.0 | 5.0 | 0.00 | 0.00 | 0.00 | 78 | 1013.2 |
| 20260509134001 | 49 | 0 | 1.0 | 5.0 | 0.00 | 0.00 | 0.00 | 79 | 1013.4 |
| 20260509133459 | 49 | 0 | 0.0 | 3.0 | 0.00 | 0.00 | 0.00 | 82 | 1013.4 |
| 20260509133000 | 49 | 0 | 0.0 | 3.0 | 0.00 | 0.00 | 0.00 | 82 | 1013.4 |
| 20260509132501 | 49 | 0 | 1.0 | 3.0 | 0.00 | 0.00 | 0.00 | 82 | 1013.2 |
| 20260509132232 | 48 | 0 | 1.0 | 6.0 | 0.00 | 0.00 | 0.00 | 82 | 1013.2 |
| 20260509131455 | 48 | 0 | 1.0 | 6.0 | 0.00 | 0.00 | 0.00 | 82 | 1013.4 |
| 20260509130956 | 48 | 0 | 1.0 | 3.0 | 0.00 | 0.00 | 0.00 | 82 | 1013.2 |
| 20260509130456 | 48 | 0 | 0.0 | 2.0 | 0.00 | 0.00 | 0.00 | 83 | 1013.0 |
| 20260509125954 | 47 | 0 | 0.0 | 2.0 | 0.00 | 0.00 | 0.00 | 84 | 1013.2 |
| 20260509125726 | 47 | 0 | 0.0 | 2.0 | 0.00 | 0.00 | 0.00 | 84 | 1013.1 |
| 20260509124952 | 47 | 0 | 0.0 | 2.0 | 0.00 | 0.00 | 0.00 | 85 | 1013.1 |
| 20260509124731 | 47 | 0 | 0.0 | 2.0 | 0.00 | 0.00 | 0.00 | 85 | 1013.0 |
| 20260509124453 | 47 | 0 | 0.0 | 2.0 | 0.00 | 0.00 | 0.00 | 85 | 1013.0 |
| 20260509123450 | 46 | 0 | 0.0 | 2.0 | 0.00 | 0.00 | 0.00 | 85 | 1013.0 |
| 20260509122950 | 46 | 0 | 0.0 | 2.0 | 0.00 | 0.00 | 0.00 | 85 | 1012.9 |
| 20260509122447 | 46 | 0 | 0.0 | 2.0 | 0.00 | 0.00 | 0.00 | 85 | 1012.8 |
| 20260509121947 | 46 | 0 | 0.0 | 2.0 | 0.00 | 0.00 | 0.00 | 86 | 1012.7 |
| 20260509121449 | 46 | 0 | 1.0 | 2.0 | 0.00 | 0.00 | 0.00 | 86 | 1012.7 |
| 20260509120946 | 46 | 0 | 1.0 | 2.0 | 0.00 | 0.00 | 0.00 | 86 | 1012.7 |
| 20260509120446 | 45 | 0 | 0.0 | 2.0 | 0.00 | 0.00 | 0.00 | 85 | 1012.7 |
| 20260509115946 | 45 | 171 | 0.0 | 0.0 | 0.00 | 0.01 | 0.00 | 84 | 1012.6 |
| 20260509115451 | 45 | 0 | 0.0 | 0.0 | 0.00 | 0.01 | 0.00 | 83 | 1012.4 |
| 20260509115446 | 45 | 0 | 0.0 | 0.0 | 0.00 | 0.01 | 0.00 | 83 | 1012.4 |
| 20260509114445 | 46 | 0 | 0.0 | 0.0 | 0.00 | 0.01 | 0.00 | 83 | 1012.3 |
| 20260509113944 | 46 | 0 | 0.0 | 2.0 | 0.00 | 0.02 | 0.00 | 83 | 1012.3 |
| 20260509113446 | 46 | 163 | 0.0 | 2.0 | 0.00 | 0.02 | 0.00 | 83 | 1012.2 |
| 20260509112945 | 46 | 0 | 0.0 | 2.0 | 0.00 | 0.02 | 0.00 | 83 | 1012.2 |
| 20260509112445 | 46 | 0 | 0.0 | 0.0 | 0.00 | 0.02 | 0.00 | 83 | 1012.2 |
| 20260509111943 | 46 | 0 | 0.0 | 2.0 | 0.00 | 0.02 | 0.00 | 83 | 1012.1 |
| 20260509111445 | 46 | 0 | 0.0 | 2.0 | 0.00 | 0.02 | 0.00 | 83 | 1012.1 |
| 20260509110945 | 46 | 0 | 1.0 | 2.0 | 0.00 | 0.02 | 0.00 | 83 | 1012.2 |
| 20260509110444 | 46 | 12 | 1.0 | 2.0 | 0.00 | 0.02 | 0.00 | 83 | 1012.0 |
| 20260509105943 | 46 | 340 | 0.0 | 2.0 | 0.00 | 0.02 | 0.00 | 83 | 1012.0 |
| 20260509105720 | 47 | 288 | 0.0 | 2.0 | 0.00 | 0.02 | 0.00 | 82 | 1011.7 |
| 20260509105445 | 47 | 288 | 0.0 | 0.0 | 0.00 | 0.02 | 0.00 | 82 | 1011.7 |
| 20260509104444 | 47 | 288 | 0.0 | 2.0 | 0.00 | 0.02 | 0.00 | 82 | 1011.9 |
| 20260509103944 | 47 | 0 | 0.0 | 1.0 | 0.00 | 0.02 | 0.00 | 81 | 1011.9 |
| 20260509103445 | 47 | 287 | 0.0 | 2.0 | 0.00 | 0.02 | 0.00 | 81 | 1011.9 |
| 20260509102944 | 48 | 0 | 0.0 | 2.0 | 0.00 | 0.02 | 0.00 | 82 | 1012.0 |
| 20260509102718 | 48 | 0 | 0.0 | 2.0 | 0.00 | 0.02 | 0.00 | 81 | 1011.6 |
| 20260509101944 | 48 | 0 | 0.0 | 2.0 | 0.00 | 0.02 | 0.00 | 81 | 1011.5 |
| 20260509101445 | 48 | 283 | 1.0 | 2.0 | 0.00 | 0.02 | 0.00 | 81 | 1011.5 |
| 20260509101214 | 48 | 0 | 1.0 | 2.0 | 0.00 | 0.02 | 0.00 | 81 | 1011.4 |
| 20260509100445 | 48 | 0 | 2.0 | 2.0 | 0.00 | 0.02 | 0.00 | 81 | 1011.4 |
| 20260509095946 | 47 | 0 | 2.0 | 4.0 | 0.00 | 0.02 | 0.00 | 81 | 1011.5 |
| 20260509095445 | 47 | 0 | 2.0 | 4.0 | 0.00 | 0.02 | 0.00 | 81 | 1011.5 |
| 20260509095222 | 47 | 0 | 2.0 | 4.0 | 0.00 | 0.02 | 0.00 | 81 | 1011.6 |
| 20260509094944 | 47 | 0 | 2.0 | 6.0 | 0.00 | 0.02 | 0.00 | 81 | 1011.5 |
| 20260509094443 | 47 | 0 | 3.0 | 6.0 | 0.00 | 0.02 | 0.00 | 81 | 1011.5 |
| 20260509093443 | 47 | 0 | 1.0 | 4.0 | 0.00 | 0.02 | 0.00 | 81 | 1011.6 |
| 20260509092943 | 48 | 0 | 0.0 | 4.0 | 0.00 | 0.03 | 0.00 | 79 | 1011.7 |
| 20260509092446 | 48 | 0 | 0.0 | 0.0 | 0.00 | 0.03 | 0.00 | 79 | 1011.6 |
| 20260509091943 | 48 | 0 | 0.0 | 2.0 | 0.00 | 0.03 | 0.00 | 78 | 1011.9 |
| 20260509091444 | 49 | 0 | 0.0 | 2.0 | 0.00 | 0.03 | 0.00 | 78 | 1011.7 |